TimeCDT,TemperatureF,Dew PointF,Humidity,Sea Level PressureIn,VisibilityMPH,Wind Direction,Wind SpeedMPH,Gust SpeedMPH,PrecipitationIn,Events,Conditions,WindDirDegrees,DateUTC
12:53 AM,59.0,55.0,87,29.91,10.0,Calm,Calm,-,N/A,,Clear,0,2013-09-24 05:53:00
1:53 AM,57.9,54.0,87,29.90,10.0,Calm,Calm,-,N/A,,Clear,0,2013-09-24 06:53:00
2:53 AM,61.0,55.0,81,29.88,10.0,ENE,3.5,-,N/A,,Clear,70,2013-09-24 07:53:00
3:53 AM,59.0,55.9,90,29.89,10.0,Calm,Calm,-,N/A,,Scattered Clouds,0,2013-09-24 08:53:00
4:53 AM,57.9,55.0,90,29.87,9.0,Calm,Calm,-,N/A,,Mostly Cloudy,0,2013-09-24 09:53:00
5:53 AM,57.0,54.0,89,29.87,9.0,ENE,3.5,-,N/A,,Clear,70,2013-09-24 10:53:00
6:53 AM,57.0,55.0,93,29.87,7.0,Calm,Calm,-,N/A,,Mostly Cloudy,0,2013-09-24 11:53:00
7:53 AM,59.0,57.0,93,29.87,6.0,Calm,Calm,-,N/A,,Clear,0,2013-09-24 12:53:00
8:53 AM,64.0,59.0,84,29.87,8.0,Calm,Calm,-,N/A,,Clear,0,2013-09-24 13:53:00
9:53 AM,69.1,59.0,70,29.86,9.0,SSE,3.5,-,N/A,,Clear,150,2013-09-24 14:53:00
10:53 AM,73.9,57.0,55,29.86,10.0,Calm,Calm,-,N/A,,Clear,0,2013-09-24 15:53:00
11:53 AM,78.1,57.0,48,29.84,10.0,Calm,Calm,-,N/A,,Clear,0,2013-09-24 16:53:00
12:53 PM,79.0,57.9,48,29.83,10.0,Calm,Calm,-,N/A,,Clear,0,2013-09-24 17:53:00
1:53 PM,82.9,59.0,44,29.81,9.0,Variable,4.6,-,N/A,,Partly Cloudy,0,2013-09-24 18:53:00
2:53 PM,82.0,55.9,41,29.80,10.0,Variable,3.5,-,N/A,,Clear,0,2013-09-24 19:53:00
3:53 PM,82.0,55.9,41,29.79,10.0,Calm,Calm,-,N/A,,Partly Cloudy,0,2013-09-24 20:53:00
4:53 PM,82.0,53.1,37,29.78,10.0,Calm,Calm,-,N/A,,Clear,0,2013-09-24 21:53:00
5:53 PM,79.0,52.0,39,29.79,10.0,Variable,4.6,-,N/A,,Clear,0,2013-09-24 22:53:00
6:53 PM,75.0,55.0,50,29.80,10.0,Variable,5.8,-,N/A,,Clear,0,2013-09-24 23:53:00
7:53 PM,71.1,55.0,57,29.81,10.0,NW,3.5,-,N/A,,Clear,320,2013-09-25 00:53:00
8:53 PM,69.1,55.9,63,29.81,10.0,Calm,Calm,-,N/A,,Clear,0,2013-09-25 01:53:00
9:53 PM,64.0,57.0,78,29.82,10.0,Calm,Calm,-,N/A,,Clear,0,2013-09-25 02:53:00
10:53 PM,62.1,57.0,84,29.81,10.0,Calm,Calm,-,N/A,,Clear,0,2013-09-25 03:53:00
11:53 PM,62.1,57.0,84,29.81,10.0,Calm,Calm,-,N/A,,Clear,0,2013-09-25 04:53:00